WetterOnline ( https://www.wetteronline.de )

Wetter aktuell Ostende

Aktuelles Wetter: Koksijde (9m)

6-stündlich | Neueste Meldungen
Ortszeit Temperatur Wetter
Fr, 19.07. 14:00 27.6° C leicht bewölkt
Fr, 19.07. 8:00 19.2° C leicht bewölkt
Fr, 19.07. 2:00 19.0° C bewölkt
Do, 18.07. 20:00 22.2° C wolkig
Do, 18.07. 14:00 25.8° C fast wolkenlos
Do, 18.07. 8:00 16.1° C leicht bewölkt
Do, 18.07. 2:00 14.5° C -
Mi, 17.07. 20:00 19.4° C -
Ortszeit Temperatur Wetter
Fr, 19.07. 19:00 27.6° C leicht bewölkt
Fr, 19.07. 18:00 27.7° C fast wolkenlos
Fr, 19.07. 17:00 27.6° C fast wolkenlos
Fr, 19.07. 16:00 27.9° C fast wolkenlos
Fr, 19.07. 15:00 27.5° C leicht bewölkt
Fr, 19.07. 14:00 27.6° C leicht bewölkt
Fr, 19.07. 13:00 27.4° C leicht bewölkt
Ortszeit Relative Feuchte Sichtweite
Fr, 19.07. 14:00 57% 20 km
Fr, 19.07. 8:00 89% 6 km
Fr, 19.07. 2:00 84% 10 km
Do, 18.07. 20:00 62% 20 km
Do, 18.07. 14:00 53% 20 km
Do, 18.07. 8:00 90% 7 km
Do, 18.07. 2:00 92% 9 km
Mi, 17.07. 20:00 70% 20 km
Ortszeit Relative Feuchte Sichtweite
Fr, 19.07. 19:00 55% 20 km
Fr, 19.07. 18:00 55% 20 km
Fr, 19.07. 17:00 50% 20 km
Fr, 19.07. 16:00 48% 20 km
Fr, 19.07. 15:00 51% 20 km
Fr, 19.07. 14:00 57% 20 km
Fr, 19.07. 13:00 58% 20 km
Ortszeit Niederschlagsmenge Niederschlagsart
Fr, 19.07. 14:00 0.0 l/m2 in 6 Std. -
Fr, 19.07. 8:00 0.0 l/m2 in 12 Std. -
Fr, 19.07. 2:00 0.0 l/m2 in 6 Std. -
Do, 18.07. 20:00 0.0 l/m2 in 12 Std. -
Do, 18.07. 14:00 0.0 l/m2 in 6 Std. -
Do, 18.07. 8:00 0.1 l/m2 in 12 Std. -
Do, 18.07. 2:00 0.1 l/m2 in 6 Std. Regen
Mi, 17.07. 20:00 0.1 l/m2 in 12 Std. Regen
Ortszeit Niederschlagsmenge Niederschlagsart
Fr, 19.07. 19:00 keine Meldung -
Fr, 19.07. 18:00 keine Meldung -
Fr, 19.07. 17:00 keine Meldung -
Fr, 19.07. 16:00 keine Meldung -
Fr, 19.07. 15:00 keine Meldung -
Fr, 19.07. 14:00 keine Meldung -
Fr, 19.07. 13:00 keine Meldung -
Ortszeit Stärke Spitze Richtung
km/h Bft. km/h Grad Sektor
Fr, 19.07. 14:00 7 2 18 350° N
Fr, 19.07. 8:00 4 1 7 uml. uml.
Fr, 19.07. 2:00 4 1 22 uml. uml.
Do, 18.07. 20:00 14 3 25 50° NO
Do, 18.07. 14:00 7 2 18 130° SO
Do, 18.07. 8:00 4 1 7 uml. uml.
Do, 18.07. 2:00 4 1 11 uml. uml.
Mi, 17.07. 20:00 7 2 18 10° N
Ortszeit Stärke Spitze Richtung
km/h Bft. km/h Grad Sektor
Fr, 19.07. 19:00 11 2 18 30° NO
Fr, 19.07. 18:00 11 2 14 30° NO
Fr, 19.07. 17:00 11 2 18 30° NO
Fr, 19.07. 16:00 11 2 18 20° N
Fr, 19.07. 15:00 14 3 18 10° N
Fr, 19.07. 14:00 7 2 18 350° N
Fr, 19.07. 13:00 4 1 14 uml. uml.
Ortszeit Untergrenze Bedeckung Gattung
total tief tief mittel hoch
Fr, 19.07. 14:00 1500 m 2/8 1/8 - Ac Ci
Fr, 19.07. 8:00 5400 m 7/8 5/8 - Ac Ci
Fr, 19.07. 2:00 4200 m - 7/8 - - -
Do, 18.07. 20:00 4200 m - 5/8 - - -
Do, 18.07. 14:00 1440 m 2/8 1/8 Cu - Ci
Do, 18.07. 8:00 5100 m 5/8 1/8 - Ac Ci
Do, 18.07. 2:00 - - - - - -
Mi, 17.07. 20:00 - - - - - -
Ortszeit Bedeckungsgrad in Achtel und Wolkenuntergrenze
Fr, 19.07. 19:00 4(5100m)
Fr, 19.07. 18:00 1(1500m)
Fr, 19.07. 17:00 1(1500m)
Fr, 19.07. 16:00 1(1500m)
Fr, 19.07. 15:00 1(1500m)
Fr, 19.07. 14:00 1(1500m)
Fr, 19.07. 13:00 1(1440m)
Ortszeit Luftdruck NN (hPa) Tendenz (hPa in 3 Std.)
Fr, 19.07. 14:00 1017 - 0,8
Fr, 19.07. 8:00 1018 - 0,4
Fr, 19.07. 2:00 1020 - 0,5
Do, 18.07. 20:00 1020 - 0,4
Do, 18.07. 14:00 1021 - 0,6
Do, 18.07. 8:00 1022 0,0
Do, 18.07. 2:00 1022 - 0,1
Mi, 17.07. 20:00 1022 + 0,2
Ortszeit Luftdruck NN (hPa) Tendenz (hPa in 3 Std.)
Fr, 19.07. 19:00 1015 - 1,2
Fr, 19.07. 18:00 1015 - 1,2
Fr, 19.07. 17:00 1016 - 1,3
Fr, 19.07. 16:00 1016 - 1,3
Fr, 19.07. 15:00 1017 - 1,1
Fr, 19.07. 14:00 1017 - 0,8
Fr, 19.07. 13:00 1017 - 0,5
Ortszeit Schneehöhe (cm)
Fr, 19.07. 14:00 -
Fr, 19.07. 8:00 -
Fr, 19.07. 2:00 -
Do, 18.07. 20:00 -
Do, 18.07. 14:00 -
Do, 18.07. 8:00 -
Do, 18.07. 2:00 -
Mi, 17.07. 20:00 -
Ortszeit Schneehöhe (cm)
Fr, 19.07. 19:00 -
Fr, 19.07. 18:00 -
Fr, 19.07. 17:00 -
Fr, 19.07. 16:00 -
Fr, 19.07. 15:00 -
Fr, 19.07. 14:00 -
Fr, 19.07. 13:00 -
Link zu dieser Seite / Seite empfehlen

Das Wetter in ...